Accueil
METAR-TAF:

METAR-TAF

Aéroports :

Maré, Nouvelle-Calédonie

Aérodrome de Maré - La Roche

latitude: 21-28-53S, longitude: 168-02-15E, altitude: 42 m

METAR: absent

Heure: 21:27 (10:27 UTC)

Prévision

Le bulletin a été fait il y a 17 heures et 27 minutes, à 17:00 UTC
Prévision valable du 21 à 18 UTC au 22 à 18 UTC
Vent 8 kt de est
Visibilité 10 km ou plus
Nuages épars à une hauteur de 2000 ft
Nuages fragmentés à une hauteur de 3500 ft
Temporairement
du 21 à 18 UTC au 22 à 08 UTC
Visibilité: 4000 m
Nuages épars à une hauteur de 2500 ft, Cumulus congestus.
averses de pluie
Probabilité 30% :
Temporairement
du 21 à 18 UTC au 22 à 06 UTC
Visibilité: 2000 m
Nuages fragmentés à une hauteur de 1200 ft
Nuages épars à une hauteur de 2000 ft, Cumulonimbus.
orage, pluie

TAF: NWWR 211700Z 2118/2218 08008KT 9999 SCT020 BKN035 TEMPO 2118/2208 4000 SHRA SCT025TCU PROB30 TEMPO 2118/2206 2000 TSRA BKN012 SCT020CB

Observations et prévisions météorologiques de plus de 4000 aéroports (messages METAR et TAF).

Les stations disponibles sont représentées par des disques jaunes et rouges sur la carte.

Passer la souris dessus pour voir le nom de la station.

Cliquer dessus pour voir les observations et prévisions météorologiques.

Pour changer de carte: cliquez sur les boutons verts avec une croix noire pour zoomer, sur le bouton vert avec un tiret pour effectuer un zoom arrière, ou sur les flèches vertes pour les cartes adjacentes.


METAR-TAF: